sensor_id;sensor_type;location;lat;lon;timestamp;P1;durP1;ratioP1;P2;durP2;ratioP2
7657;SDS011;8462;53.156;8.220;2023-09-08T00:02:11;4.30;;;3.87;;
7657;SDS011;8462;53.156;8.220;2023-09-08T00:04:37;5.43;;;4.20;;
7657;SDS011;8462;53.156;8.220;2023-09-08T00:07:04;5.40;;;3.57;;
7657;SDS011;8462;53.156;8.220;2023-09-08T00:09:31;6.97;;;4.00;;
7657;SDS011;8462;53.156;8.220;2023-09-08T00:11:59;5.93;;;4.40;;
7657;SDS011;8462;53.156;8.220;2023-09-08T00:14:26;4.70;;;4.27;;
7657;SDS011;8462;53.156;8.220;2023-09-08T00:16:53;6.47;;;4.27;;
7657;SDS011;8462;53.156;8.220;2023-09-08T00:19:20;4.83;;;3.90;;
7657;SDS011;8462;53.156;8.220;2023-09-08T00:21:48;5.33;;;4.40;;
7657;SDS011;8462;53.156;8.220;2023-09-08T00:24:15;5.37;;;4.40;;
7657;SDS011;8462;53.156;8.220;2023-09-08T00:26:42;4.50;;;4.10;;
7657;SDS011;8462;53.156;8.220;2023-09-08T00:29:11;7.80;;;4.50;;
7657;SDS011;8462;53.156;8.220;2023-09-08T00:31:38;5.57;;;4.63;;
7657;SDS011;8462;53.156;8.220;2023-09-08T00:34:05;4.63;;;3.93;;
7657;SDS011;8462;53.156;8.220;2023-09-08T00:36:31;6.23;;;4.37;;
7657;SDS011;8462;53.156;8.220;2023-09-08T00:38:58;5.10;;;3.97;;
7657;SDS011;8462;53.156;8.220;2023-09-08T00:41:27;5.53;;;4.57;;
7657;SDS011;8462;53.156;8.220;2023-09-08T00:43:54;6.10;;;4.50;;
7657;SDS011;8462;53.156;8.220;2023-09-08T00:46:22;5.63;;;4.13;;
7657;SDS011;8462;53.156;8.220;2023-09-08T00:48:50;6.13;;;4.33;;
7657;SDS011;8462;53.156;8.220;2023-09-08T00:51:17;5.87;;;4.50;;
7657;SDS011;8462;53.156;8.220;2023-09-08T00:53:44;4.90;;;4.03;;
7657;SDS011;8462;53.156;8.220;2023-09-08T00:56:11;6.07;;;4.43;;
7657;SDS011;8462;53.156;8.220;2023-09-08T00:58:39;6.27;;;4.30;;
7657;SDS011;8462;53.156;8.220;2023-09-08T01:01:06;5.47;;;4.50;;
7657;SDS011;8462;53.156;8.220;2023-09-08T01:03:34;6.80;;;4.50;;
7657;SDS011;8462;53.156;8.220;2023-09-08T01:06:01;5.50;;;4.17;;
7657;SDS011;8462;53.156;8.220;2023-09-08T01:08:29;5.77;;;4.67;;
7657;SDS011;8462;53.156;8.220;2023-09-08T01:10:56;5.03;;;4.33;;
7657;SDS011;8462;53.156;8.220;2023-09-08T01:13:23;5.73;;;4.50;;
7657;SDS011;8462;53.156;8.220;2023-09-08T01:15:50;5.70;;;4.50;;
7657;SDS011;8462;53.156;8.220;2023-09-08T01:18:17;6.17;;;4.57;;
7657;SDS011;8462;53.156;8.220;2023-09-08T01:23:56;7.47;;;4.43;;
7657;SDS011;8462;53.156;8.220;2023-09-08T01:26:40;7.00;;;5.00;;
7657;SDS011;8462;53.156;8.220;2023-09-08T01:29:08;7.00;;;4.30;;
7657;SDS011;8462;53.156;8.220;2023-09-08T01:31:36;5.73;;;4.40;;
7657;SDS011;8462;53.156;8.220;2023-09-08T01:34:04;5.20;;;4.50;;
7657;SDS011;8462;53.156;8.220;2023-09-08T01:36:32;6.27;;;4.70;;
7657;SDS011;8462;53.156;8.220;2023-09-08T01:38:59;7.23;;;5.23;;
7657;SDS011;8462;53.156;8.220;2023-09-08T01:41:27;6.23;;;4.57;;
7657;SDS011;8462;53.156;8.220;2023-09-08T01:43:56;4.70;;;4.20;;
7657;SDS011;8462;53.156;8.220;2023-09-08T01:46:25;6.77;;;4.73;;
7657;SDS011;8462;53.156;8.220;2023-09-08T01:48:51;7.00;;;5.23;;
7657;SDS011;8462;53.156;8.220;2023-09-08T01:51:18;5.97;;;5.00;;
7657;SDS011;8462;53.156;8.220;2023-09-08T01:53:45;5.87;;;4.77;;
7657;SDS011;8462;53.156;8.220;2023-09-08T01:56:12;6.00;;;4.37;;
7657;SDS011;8462;53.156;8.220;2023-09-08T01:58:39;6.30;;;4.70;;
7657;SDS011;8462;53.156;8.220;2023-09-08T02:01:07;5.47;;;4.47;;
7657;SDS011;8462;53.156;8.220;2023-09-08T02:03:34;7.03;;;4.97;;
7657;SDS011;8462;53.156;8.220;2023-09-08T02:06:03;6.97;;;5.23;;
7657;SDS011;8462;53.156;8.220;2023-09-08T02:08:30;6.07;;;4.90;;
7657;SDS011;8462;53.156;8.220;2023-09-08T02:10:58;6.23;;;4.80;;
7657;SDS011;8462;53.156;8.220;2023-09-08T02:13:24;9.17;;;5.10;;
7657;SDS011;8462;53.156;8.220;2023-09-08T02:15:52;8.17;;;5.20;;
7657;SDS011;8462;53.156;8.220;2023-09-08T02:18:20;5.43;;;4.83;;
7657;SDS011;8462;53.156;8.220;2023-09-08T02:20:47;5.67;;;5.00;;
7657;SDS011;8462;53.156;8.220;2023-09-08T02:23:14;5.90;;;5.30;;
7657;SDS011;8462;53.156;8.220;2023-09-08T02:25:41;5.80;;;5.13;;
7657;SDS011;8462;53.156;8.220;2023-09-08T02:28:09;5.50;;;4.57;;
7657;SDS011;8462;53.156;8.220;2023-09-08T02:30:35;6.20;;;5.10;;
7657;SDS011;8462;53.156;8.220;2023-09-08T02:33:03;6.60;;;4.87;;
7657;SDS011;8462;53.156;8.220;2023-09-08T02:35:35;6.10;;;4.70;;
7657;SDS011;8462;53.156;8.220;2023-09-08T02:38:03;7.33;;;5.00;;
7657;SDS011;8462;53.156;8.220;2023-09-08T02:40:32;6.80;;;4.70;;
7657;SDS011;8462;53.156;8.220;2023-09-08T02:43:00;6.53;;;5.43;;
7657;SDS011;8462;53.156;8.220;2023-09-08T02:45:27;7.17;;;5.07;;
7657;SDS011;8462;53.156;8.220;2023-09-08T02:47:54;6.03;;;4.70;;
7657;SDS011;8462;53.156;8.220;2023-09-08T02:50:22;6.53;;;4.90;;
7657;SDS011;8462;53.156;8.220;2023-09-08T02:52:51;5.30;;;4.77;;
7657;SDS011;8462;53.156;8.220;2023-09-08T02:55:24;6.73;;;4.90;;
7657;SDS011;8462;53.156;8.220;2023-09-08T02:57:50;6.00;;;4.80;;
7657;SDS011;8462;53.156;8.220;2023-09-08T03:00:17;6.20;;;5.60;;
7657;SDS011;8462;53.156;8.220;2023-09-08T03:02:44;6.83;;;5.43;;
7657;SDS011;8462;53.156;8.220;2023-09-08T03:05:11;6.47;;;5.10;;
7657;SDS011;8462;53.156;8.220;2023-09-08T03:07:39;7.53;;;5.30;;
7657;SDS011;8462;53.156;8.220;2023-09-08T03:10:07;7.53;;;5.87;;
7657;SDS011;8462;53.156;8.220;2023-09-08T03:12:35;6.23;;;5.50;;
7657;SDS011;8462;53.156;8.220;2023-09-08T03:15:03;5.97;;;5.37;;
7657;SDS011;8462;53.156;8.220;2023-09-08T03:17:30;6.70;;;5.50;;
7657;SDS011;8462;53.156;8.220;2023-09-08T03:19:57;6.77;;;5.50;;
7657;SDS011;8462;53.156;8.220;2023-09-08T03:22:24;5.90;;;5.30;;
7657;SDS011;8462;53.156;8.220;2023-09-08T03:24:52;6.60;;;5.53;;
7657;SDS011;8462;53.156;8.220;2023-09-08T03:27:22;9.30;;;6.43;;
7657;SDS011;8462;53.156;8.220;2023-09-08T03:29:49;7.23;;;6.17;;
7657;SDS011;8462;53.156;8.220;2023-09-08T03:32:16;6.53;;;5.10;;
7657;SDS011;8462;53.156;8.220;2023-09-08T03:34:44;7.20;;;5.90;;
7657;SDS011;8462;53.156;8.220;2023-09-08T03:37:11;7.73;;;5.90;;
7657;SDS011;8462;53.156;8.220;2023-09-08T03:39:38;6.60;;;5.37;;
7657;SDS011;8462;53.156;8.220;2023-09-08T03:42:05;7.87;;;5.73;;
7657;SDS011;8462;53.156;8.220;2023-09-08T03:44:33;8.03;;;6.20;;
7657;SDS011;8462;53.156;8.220;2023-09-08T03:47:00;7.70;;;6.13;;
7657;SDS011;8462;53.156;8.220;2023-09-08T03:49:27;7.90;;;5.73;;
7657;SDS011;8462;53.156;8.220;2023-09-08T03:51:54;8.53;;;5.93;;
7657;SDS011;8462;53.156;8.220;2023-09-08T03:54:21;7.40;;;5.40;;
7657;SDS011;8462;53.156;8.220;2023-09-08T03:56:48;7.43;;;6.00;;
7657;SDS011;8462;53.156;8.220;2023-09-08T03:59:15;11.17;;;5.83;;
7657;SDS011;8462;53.156;8.220;2023-09-08T04:01:43;7.33;;;5.83;;
7657;SDS011;8462;53.156;8.220;2023-09-08T04:04:10;7.70;;;5.90;;
7657;SDS011;8462;53.156;8.220;2023-09-08T04:06:38;9.10;;;6.13;;
7657;SDS011;8462;53.156;8.220;2023-09-08T04:09:05;7.43;;;5.47;;
7657;SDS011;8462;53.156;8.220;2023-09-08T04:11:32;7.80;;;5.47;;
7657;SDS011;8462;53.156;8.220;2023-09-08T04:13:59;9.53;;;6.37;;
7657;SDS011;8462;53.156;8.220;2023-09-08T04:16:26;7.03;;;5.53;;
7657;SDS011;8462;53.156;8.220;2023-09-08T04:18:55;12.60;;;5.57;;
7657;SDS011;8462;53.156;8.220;2023-09-08T04:21:22;7.40;;;5.93;;
7657;SDS011;8462;53.156;8.220;2023-09-08T04:23:49;9.60;;;6.17;;
7657;SDS011;8462;53.156;8.220;2023-09-08T04:26:16;7.63;;;6.17;;
7657;SDS011;8462;53.156;8.220;2023-09-08T04:28:43;6.73;;;5.40;;
7657;SDS011;8462;53.156;8.220;2023-09-08T04:31:10;7.13;;;6.07;;
7657;SDS011;8462;53.156;8.220;2023-09-08T04:33:38;9.43;;;6.37;;
7657;SDS011;8462;53.156;8.220;2023-09-08T04:36:06;9.70;;;6.00;;
7657;SDS011;8462;53.156;8.220;2023-09-08T04:38:33;7.30;;;6.07;;
7657;SDS011;8462;53.156;8.220;2023-09-08T04:41:00;9.07;;;6.27;;
7657;SDS011;8462;53.156;8.220;2023-09-08T04:43:28;10.43;;;6.57;;
7657;SDS011;8462;53.156;8.220;2023-09-08T04:45:55;8.80;;;6.20;;
7657;SDS011;8462;53.156;8.220;2023-09-08T04:48:22;8.57;;;7.07;;
7657;SDS011;8462;53.156;8.220;2023-09-08T04:50:49;8.90;;;6.60;;
7657;SDS011;8462;53.156;8.220;2023-09-08T04:53:18;8.53;;;7.00;;
7657;SDS011;8462;53.156;8.220;2023-09-08T04:55:45;9.70;;;7.23;;
7657;SDS011;8462;53.156;8.220;2023-09-08T04:58:12;8.83;;;6.63;;
7657;SDS011;8462;53.156;8.220;2023-09-08T05:00:39;9.47;;;7.67;;
7657;SDS011;8462;53.156;8.220;2023-09-08T05:03:06;10.27;;;8.13;;
7657;SDS011;8462;53.156;8.220;2023-09-08T05:05:33;9.83;;;7.33;;
7657;SDS011;8462;53.156;8.220;2023-09-08T05:08:00;11.70;;;8.27;;
7657;SDS011;8462;53.156;8.220;2023-09-08T05:10:29;11.57;;;7.27;;
7657;SDS011;8462;53.156;8.220;2023-09-08T05:12:56;6.83;;;5.97;;
7657;SDS011;8462;53.156;8.220;2023-09-08T05:15:24;9.60;;;7.00;;
7657;SDS011;8462;53.156;8.220;2023-09-08T05:17:52;9.30;;;7.10;;
7657;SDS011;8462;53.156;8.220;2023-09-08T05:20:20;11.33;;;7.60;;
7657;SDS011;8462;53.156;8.220;2023-09-08T05:22:47;7.77;;;6.50;;
7657;SDS011;8462;53.156;8.220;2023-09-08T05:25:14;8.10;;;6.63;;
7657;SDS011;8462;53.156;8.220;2023-09-08T05:27:42;8.07;;;6.17;;
7657;SDS011;8462;53.156;8.220;2023-09-08T05:30:11;7.90;;;6.07;;
7657;SDS011;8462;53.156;8.220;2023-09-08T05:32:38;10.80;;;7.00;;
7657;SDS011;8462;53.156;8.220;2023-09-08T05:35:05;8.57;;;6.37;;
7657;SDS011;8462;53.156;8.220;2023-09-08T05:37:35;6.70;;;5.37;;
7657;SDS011;8462;53.156;8.220;2023-09-08T05:40:02;10.00;;;6.53;;
7657;SDS011;8462;53.156;8.220;2023-09-08T05:42:30;7.97;;;5.70;;
7657;SDS011;8462;53.156;8.220;2023-09-08T05:44:58;7.13;;;5.60;;
7657;SDS011;8462;53.156;8.220;2023-09-08T05:47:26;9.43;;;5.93;;
7657;SDS011;8462;53.156;8.220;2023-09-08T05:49:53;7.78;;;6.05;;
7657;SDS011;8462;53.156;8.220;2023-09-08T05:52:20;7.80;;;6.13;;
7657;SDS011;8462;53.156;8.220;2023-09-08T05:54:48;6.15;;;5.30;;
7657;SDS011;8462;53.156;8.220;2023-09-08T05:57:14;7.30;;;5.95;;
7657;SDS011;8462;53.156;8.220;2023-09-08T05:59:41;7.20;;;5.93;;
7657;SDS011;8462;53.156;8.220;2023-09-08T06:02:10;7.05;;;5.35;;
7657;SDS011;8462;53.156;8.220;2023-09-08T06:04:37;7.18;;;6.28;;
7657;SDS011;8462;53.156;8.220;2023-09-08T06:07:04;7.65;;;5.70;;
7657;SDS011;8462;53.156;8.220;2023-09-08T06:09:31;9.68;;;5.97;;
7657;SDS011;8462;53.156;8.220;2023-09-08T06:11:58;8.75;;;5.85;;
7657;SDS011;8462;53.156;8.220;2023-09-08T06:14:26;8.38;;;5.45;;
7657;SDS011;8462;53.156;8.220;2023-09-08T06:16:52;7.82;;;6.22;;
7657;SDS011;8462;53.156;8.220;2023-09-08T06:19:21;8.02;;;5.85;;
7657;SDS011;8462;53.156;8.220;2023-09-08T06:21:49;7.00;;;5.07;;
7657;SDS011;8462;53.156;8.220;2023-09-08T06:24:18;7.15;;;5.72;;
7657;SDS011;8462;53.156;8.220;2023-09-08T06:26:45;6.63;;;5.90;;
7657;SDS011;8462;53.156;8.220;2023-09-08T06:29:12;5.60;;;4.95;;
7657;SDS011;8462;53.156;8.220;2023-09-08T06:31:39;6.75;;;5.28;;
7657;SDS011;8462;53.156;8.220;2023-09-08T06:34:06;8.55;;;5.68;;
7657;SDS011;8462;53.156;8.220;2023-09-08T06:36:34;9.18;;;5.70;;
7657;SDS011;8462;53.156;8.220;2023-09-08T06:39:02;7.07;;;5.90;;
7657;SDS011;8462;53.156;8.220;2023-09-08T06:41:29;7.07;;;5.78;;
7657;SDS011;8462;53.156;8.220;2023-09-08T06:43:59;7.35;;;6.65;;
7657;SDS011;8462;53.156;8.220;2023-09-08T06:46:28;7.20;;;5.60;;
7657;SDS011;8462;53.156;8.220;2023-09-08T06:48:56;7.00;;;5.68;;
7657;SDS011;8462;53.156;8.220;2023-09-08T06:51:23;7.57;;;6.50;;
7657;SDS011;8462;53.156;8.220;2023-09-08T06:53:55;6.35;;;5.38;;
7657;SDS011;8462;53.156;8.220;2023-09-08T06:56:24;9.35;;;5.97;;
7657;SDS011;8462;53.156;8.220;2023-09-08T06:58:52;7.22;;;5.57;;
7657;SDS011;8462;53.156;8.220;2023-09-08T07:01:19;7.30;;;5.20;;
7657;SDS011;8462;53.156;8.220;2023-09-08T07:03:47;7.43;;;5.65;;
7657;SDS011;8462;53.156;8.220;2023-09-08T07:06:16;6.13;;;5.25;;
7657;SDS011;8462;53.156;8.220;2023-09-08T07:08:43;6.90;;;6.18;;
7657;SDS011;8462;53.156;8.220;2023-09-08T07:11:12;8.98;;;6.20;;
7657;SDS011;8462;53.156;8.220;2023-09-08T07:13:39;5.95;;;5.30;;
7657;SDS011;8462;53.156;8.220;2023-09-08T07:16:06;6.03;;;5.43;;
7657;SDS011;8462;53.156;8.220;2023-09-08T07:18:34;6.80;;;5.35;;
7657;SDS011;8462;53.156;8.220;2023-09-08T07:21:03;7.75;;;5.85;;
7657;SDS011;8462;53.156;8.220;2023-09-08T07:23:31;7.78;;;6.95;;
7657;SDS011;8462;53.156;8.220;2023-09-08T07:25:58;7.32;;;5.32;;
7657;SDS011;8462;53.156;8.220;2023-09-08T07:28:30;12.63;;;7.43;;
7657;SDS011;8462;53.156;8.220;2023-09-08T07:31:00;7.93;;;5.93;;
7657;SDS011;8462;53.156;8.220;2023-09-08T07:33:29;8.55;;;6.38;;
7657;SDS011;8462;53.156;8.220;2023-09-08T07:35:56;7.45;;;6.70;;
7657;SDS011;8462;53.156;8.220;2023-09-08T07:38:25;7.50;;;5.60;;
7657;SDS011;8462;53.156;8.220;2023-09-08T07:40:52;5.53;;;5.00;;
7657;SDS011;8462;53.156;8.220;2023-09-08T07:43:19;7.47;;;5.38;;
7657;SDS011;8462;53.156;8.220;2023-09-08T07:45:48;7.75;;;6.75;;
7657;SDS011;8462;53.156;8.220;2023-09-08T07:48:15;8.27;;;6.03;;
7657;SDS011;8462;53.156;8.220;2023-09-08T07:50:42;8.40;;;6.20;;
7657;SDS011;8462;53.156;8.220;2023-09-08T07:53:10;7.38;;;5.90;;
7657;SDS011;8462;53.156;8.220;2023-09-08T07:55:37;7.80;;;5.80;;
7657;SDS011;8462;53.156;8.220;2023-09-08T07:58:04;7.10;;;6.10;;
7657;SDS011;8462;53.156;8.220;2023-09-08T08:00:31;7.17;;;5.53;;
7657;SDS011;8462;53.156;8.220;2023-09-08T08:03:00;6.17;;;5.33;;
7657;SDS011;8462;53.156;8.220;2023-09-08T08:05:27;6.77;;;5.63;;
7657;SDS011;8462;53.156;8.220;2023-09-08T08:07:54;7.93;;;5.53;;
7657;SDS011;8462;53.156;8.220;2023-09-08T08:10:21;12.63;;;5.97;;
7657;SDS011;8462;53.156;8.220;2023-09-08T08:12:48;8.17;;;5.30;;
7657;SDS011;8462;53.156;8.220;2023-09-08T08:15:15;6.27;;;5.10;;
7657;SDS011;8462;53.156;8.220;2023-09-08T08:17:42;6.43;;;5.83;;
7657;SDS011;8462;53.156;8.220;2023-09-08T08:20:11;7.97;;;6.27;;
7657;SDS011;8462;53.156;8.220;2023-09-08T08:22:43;11.43;;;6.00;;
7657;SDS011;8462;53.156;8.220;2023-09-08T08:25:11;7.27;;;5.50;;
7657;SDS011;8462;53.156;8.220;2023-09-08T08:27:38;8.87;;;5.97;;
7657;SDS011;8462;53.156;8.220;2023-09-08T08:30:06;6.73;;;5.87;;
7657;SDS011;8462;53.156;8.220;2023-09-08T08:32:35;7.70;;;5.67;;
7657;SDS011;8462;53.156;8.220;2023-09-08T08:35:02;8.40;;;6.10;;
7657;SDS011;8462;53.156;8.220;2023-09-08T08:37:32;7.10;;;5.33;;
7657;SDS011;8462;53.156;8.220;2023-09-08T08:39:59;8.40;;;5.60;;
7657;SDS011;8462;53.156;8.220;2023-09-08T08:42:30;6.47;;;5.17;;
7657;SDS011;8462;53.156;8.220;2023-09-08T08:44:58;8.40;;;5.60;;
7657;SDS011;8462;53.156;8.220;2023-09-08T08:47:25;6.60;;;5.57;;
7657;SDS011;8462;53.156;8.220;2023-09-08T08:49:53;7.90;;;5.32;;
7657;SDS011;8462;53.156;8.220;2023-09-08T08:52:26;6.47;;;5.30;;
7657;SDS011;8462;53.156;8.220;2023-09-08T08:54:55;6.00;;;5.40;;
7657;SDS011;8462;53.156;8.220;2023-09-08T08:57:22;6.18;;;5.35;;
7657;SDS011;8462;53.156;8.220;2023-09-08T08:59:53;8.18;;;6.00;;
7657;SDS011;8462;53.156;8.220;2023-09-08T09:02:21;8.38;;;6.55;;
7657;SDS011;8462;53.156;8.220;2023-09-08T09:04:52;6.47;;;4.88;;
7657;SDS011;8462;53.156;8.220;2023-09-08T09:07:20;6.32;;;5.35;;
7657;SDS011;8462;53.156;8.220;2023-09-08T09:09:47;7.15;;;5.60;;
7657;SDS011;8462;53.156;8.220;2023-09-08T09:12:16;7.07;;;6.05;;
7657;SDS011;8462;53.156;8.220;2023-09-08T09:14:44;6.18;;;5.20;;
7657;SDS011;8462;53.156;8.220;2023-09-08T09:17:13;7.13;;;5.78;;
7657;SDS011;8462;53.156;8.220;2023-09-08T09:19:40;8.77;;;5.22;;
7657;SDS011;8462;53.156;8.220;2023-09-08T09:22:07;5.70;;;5.05;;
7657;SDS011;8462;53.156;8.220;2023-09-08T09:27:06;6.45;;;5.05;;
7657;SDS011;8462;53.156;8.220;2023-09-08T09:29:40;7.95;;;5.88;;
7657;SDS011;8462;53.156;8.220;2023-09-08T09:32:11;7.93;;;5.28;;
7657;SDS011;8462;53.156;8.220;2023-09-08T09:34:47;6.75;;;5.32;;
7657;SDS011;8462;53.156;8.220;2023-09-08T09:37:18;6.70;;;5.38;;
7657;SDS011;8462;53.156;8.220;2023-09-08T09:39:48;5.80;;;4.60;;
7657;SDS011;8462;53.156;8.220;2023-09-08T09:42:16;7.18;;;4.47;;
7657;SDS011;8462;53.156;8.220;2023-09-08T09:44:44;8.05;;;4.63;;
7657;SDS011;8462;53.156;8.220;2023-09-08T09:47:14;7.90;;;4.53;;
7657;SDS011;8462;53.156;8.220;2023-09-08T09:49:42;7.05;;;4.97;;
7657;SDS011;8462;53.156;8.220;2023-09-08T09:52:10;5.97;;;4.72;;
7657;SDS011;8462;53.156;8.220;2023-09-08T09:54:39;6.40;;;4.07;;
7657;SDS011;8462;53.156;8.220;2023-09-08T09:57:07;6.50;;;5.57;;
7657;SDS011;8462;53.156;8.220;2023-09-08T09:59:35;6.00;;;4.55;;
7657;SDS011;8462;53.156;8.220;2023-09-08T10:02:04;6.18;;;4.88;;
7657;SDS011;8462;53.156;8.220;2023-09-08T10:04:31;6.93;;;5.22;;
7657;SDS011;8462;53.156;8.220;2023-09-08T10:07:00;7.47;;;4.20;;
7657;SDS011;8462;53.156;8.220;2023-09-08T10:09:27;7.38;;;4.57;;
7657;SDS011;8462;53.156;8.220;2023-09-08T10:11:54;9.82;;;4.85;;
7657;SDS011;8462;53.156;8.220;2023-09-08T10:14:25;5.18;;;4.00;;
7657;SDS011;8462;53.156;8.220;2023-09-08T10:16:55;6.20;;;4.45;;
7657;SDS011;8462;53.156;8.220;2023-09-08T10:19:27;5.63;;;4.28;;
7657;SDS011;8462;53.156;8.220;2023-09-08T10:21:55;8.52;;;4.70;;
7657;SDS011;8462;53.156;8.220;2023-09-08T10:24:26;6.85;;;4.47;;
7657;SDS011;8462;53.156;8.220;2023-09-08T10:26:55;6.10;;;4.03;;
7657;SDS011;8462;53.156;8.220;2023-09-08T10:29:27;6.35;;;4.40;;
7657;SDS011;8462;53.156;8.220;2023-09-08T10:31:55;5.40;;;4.82;;
7657;SDS011;8462;53.156;8.220;2023-09-08T10:34:24;4.80;;;4.13;;
7657;SDS011;8462;53.156;8.220;2023-09-08T10:36:54;7.07;;;3.92;;
7657;SDS011;8462;53.156;8.220;2023-09-08T10:39:27;4.63;;;4.13;;
7657;SDS011;8462;53.156;8.220;2023-09-08T10:45:01;5.40;;;4.32;;
7657;SDS011;8462;53.156;8.220;2023-09-08T10:50:34;5.53;;;4.30;;
7657;SDS011;8462;53.156;8.220;2023-09-08T10:55:52;5.85;;;4.63;;
7657;SDS011;8462;53.156;8.220;2023-09-08T10:58:21;8.30;;;5.00;;
7657;SDS011;8462;53.156;8.220;2023-09-08T11:00:58;5.88;;;4.72;;
7657;SDS011;8462;53.156;8.220;2023-09-08T11:03:28;6.18;;;4.45;;
7657;SDS011;8462;53.156;8.220;2023-09-08T11:06:11;6.05;;;4.97;;
7657;SDS011;8462;53.156;8.220;2023-09-08T11:08:40;5.55;;;3.97;;
7657;SDS011;8462;53.156;8.220;2023-09-08T11:11:09;7.90;;;5.63;;
7657;SDS011;8462;53.156;8.220;2023-09-08T11:13:37;4.22;;;3.60;;
7657;SDS011;8462;53.156;8.220;2023-09-08T11:16:05;4.05;;;3.53;;
7657;SDS011;8462;53.156;8.220;2023-09-08T11:18:33;4.72;;;3.90;;
7657;SDS011;8462;53.156;8.220;2023-09-08T11:21:01;5.15;;;3.90;;
7657;SDS011;8462;53.156;8.220;2023-09-08T11:23:31;4.97;;;4.43;;
7657;SDS011;8462;53.156;8.220;2023-09-08T11:25:58;5.28;;;4.20;;
7657;SDS011;8462;53.156;8.220;2023-09-08T11:28:27;5.30;;;3.63;;
7657;SDS011;8462;53.156;8.220;2023-09-08T11:30:55;4.45;;;3.88;;
7657;SDS011;8462;53.156;8.220;2023-09-08T11:33:23;6.80;;;3.90;;
7657;SDS011;8462;53.156;8.220;2023-09-08T11:35:51;4.43;;;4.03;;
7657;SDS011;8462;53.156;8.220;2023-09-08T11:38:19;4.20;;;3.30;;
7657;SDS011;8462;53.156;8.220;2023-09-08T11:40:51;4.70;;;3.60;;
7657;SDS011;8462;53.156;8.220;2023-09-08T11:43:19;5.65;;;3.80;;
7657;SDS011;8462;53.156;8.220;2023-09-08T11:45:46;3.95;;;3.40;;
7657;SDS011;8462;53.156;8.220;2023-09-08T11:48:13;4.15;;;3.60;;
7657;SDS011;8462;53.156;8.220;2023-09-08T11:50:41;3.67;;;3.33;;
7657;SDS011;8462;53.156;8.220;2023-09-08T11:53:09;4.22;;;3.33;;
7657;SDS011;8462;53.156;8.220;2023-09-08T11:55:36;3.50;;;3.20;;
7657;SDS011;8462;53.156;8.220;2023-09-08T11:58:05;5.63;;;3.92;;
7657;SDS011;8462;53.156;8.220;2023-09-08T12:00:32;3.67;;;3.38;;
7657;SDS011;8462;53.156;8.220;2023-09-08T12:03:09;3.45;;;2.88;;
7657;SDS011;8462;53.156;8.220;2023-09-08T12:05:37;3.78;;;3.40;;
7657;SDS011;8462;53.156;8.220;2023-09-08T12:08:05;3.45;;;3.13;;
7657;SDS011;8462;53.156;8.220;2023-09-08T12:10:42;4.28;;;2.97;;
7657;SDS011;8462;53.156;8.220;2023-09-08T12:13:10;6.22;;;3.30;;
7657;SDS011;8462;53.156;8.220;2023-09-08T12:15:39;3.92;;;3.17;;
7657;SDS011;8462;53.156;8.220;2023-09-08T12:18:09;3.40;;;3.00;;
7657;SDS011;8462;53.156;8.220;2023-09-08T12:20:38;4.75;;;3.42;;
7657;SDS011;8462;53.156;8.220;2023-09-08T12:23:06;4.28;;;3.30;;
7657;SDS011;8462;53.156;8.220;2023-09-08T12:25:44;4.35;;;3.08;;
7657;SDS011;8462;53.156;8.220;2023-09-08T12:28:12;4.40;;;3.10;;
7657;SDS011;8462;53.156;8.220;2023-09-08T12:30:41;3.60;;;3.13;;
7657;SDS011;8462;53.156;8.220;2023-09-08T12:33:08;5.05;;;3.15;;
7657;SDS011;8462;53.156;8.220;2023-09-08T12:35:36;6.07;;;3.25;;
7657;SDS011;8462;53.156;8.220;2023-09-08T12:38:04;3.78;;;2.97;;
7657;SDS011;8462;53.156;8.220;2023-09-08T12:40:33;7.07;;;3.20;;
7657;SDS011;8462;53.156;8.220;2023-09-08T12:43:01;4.55;;;3.78;;
7657;SDS011;8462;53.156;8.220;2023-09-08T12:45:30;5.32;;;3.22;;
7657;SDS011;8462;53.156;8.220;2023-09-08T12:47:58;3.65;;;3.35;;
7657;SDS011;8462;53.156;8.220;2023-09-08T12:50:27;4.80;;;3.13;;
7657;SDS011;8462;53.156;8.220;2023-09-08T12:52:56;4.18;;;3.20;;
7657;SDS011;8462;53.156;8.220;2023-09-08T12:55:23;3.45;;;2.92;;
7657;SDS011;8462;53.156;8.220;2023-09-08T12:57:50;3.85;;;2.75;;
7657;SDS011;8462;53.156;8.220;2023-09-08T13:00:19;4.50;;;2.63;;
7657;SDS011;8462;53.156;8.220;2023-09-08T13:02:49;5.45;;;3.13;;
7657;SDS011;8462;53.156;8.220;2023-09-08T13:05:16;4.32;;;3.60;;
7657;SDS011;8462;53.156;8.220;2023-09-08T13:07:43;4.97;;;3.45;;
7657;SDS011;8462;53.156;8.220;2023-09-08T13:10:11;4.00;;;3.60;;
7657;SDS011;8462;53.156;8.220;2023-09-08T13:12:38;3.47;;;2.90;;
7657;SDS011;8462;53.156;8.220;2023-09-08T13:15:05;2.95;;;2.65;;
7657;SDS011;8462;53.156;8.220;2023-09-08T13:17:33;3.42;;;3.13;;
7657;SDS011;8462;53.156;8.220;2023-09-08T13:20:01;3.50;;;3.17;;
7657;SDS011;8462;53.156;8.220;2023-09-08T13:22:28;3.85;;;3.20;;
7657;SDS011;8462;53.156;8.220;2023-09-08T13:24:55;4.47;;;3.08;;
7657;SDS011;8462;53.156;8.220;2023-09-08T13:27:22;4.10;;;2.92;;
7657;SDS011;8462;53.156;8.220;2023-09-08T13:29:50;6.05;;;3.67;;
7657;SDS011;8462;53.156;8.220;2023-09-08T13:32:16;4.80;;;3.75;;
7657;SDS011;8462;53.156;8.220;2023-09-08T13:34:43;3.85;;;2.90;;
7657;SDS011;8462;53.156;8.220;2023-09-08T13:37:12;2.80;;;2.45;;
7657;SDS011;8462;53.156;8.220;2023-09-08T13:39:40;2.80;;;2.50;;
7657;SDS011;8462;53.156;8.220;2023-09-08T13:42:06;3.70;;;3.03;;
7657;SDS011;8462;53.156;8.220;2023-09-08T13:44:34;3.65;;;3.08;;
7657;SDS011;8462;53.156;8.220;2023-09-08T13:47:02;4.75;;;3.00;;
7657;SDS011;8462;53.156;8.220;2023-09-08T13:49:29;4.90;;;3.42;;
7657;SDS011;8462;53.156;8.220;2023-09-08T13:51:56;6.85;;;3.30;;
7657;SDS011;8462;53.156;8.220;2023-09-08T13:54:24;4.78;;;3.47;;
7657;SDS011;8462;53.156;8.220;2023-09-08T13:56:57;3.80;;;3.15;;
7657;SDS011;8462;53.156;8.220;2023-09-08T13:59:26;6.05;;;3.10;;
7657;SDS011;8462;53.156;8.220;2023-09-08T14:01:54;4.05;;;3.17;;
7657;SDS011;8462;53.156;8.220;2023-09-08T14:04:21;3.67;;;3.15;;
7657;SDS011;8462;53.156;8.220;2023-09-08T14:06:48;4.18;;;3.58;;
7657;SDS011;8462;53.156;8.220;2023-09-08T14:09:15;3.78;;;3.10;;
7657;SDS011;8462;53.156;8.220;2023-09-08T14:11:44;5.38;;;3.20;;
7657;SDS011;8462;53.156;8.220;2023-09-08T14:14:10;4.55;;;3.03;;
7657;SDS011;8462;53.156;8.220;2023-09-08T14:16:37;6.30;;;4.40;;
7657;SDS011;8462;53.156;8.220;2023-09-08T14:19:04;3.78;;;3.28;;
7657;SDS011;8462;53.156;8.220;2023-09-08T14:21:31;10.85;;;6.82;;
7657;SDS011;8462;53.156;8.220;2023-09-08T14:23:58;5.85;;;4.45;;
7657;SDS011;8462;53.156;8.220;2023-09-08T14:26:25;9.75;;;6.57;;
7657;SDS011;8462;53.156;8.220;2023-09-08T14:28:53;4.07;;;3.65;;
7657;SDS011;8462;53.156;8.220;2023-09-08T14:31:20;3.60;;;3.30;;
7657;SDS011;8462;53.156;8.220;2023-09-08T14:33:47;3.80;;;3.05;;
7657;SDS011;8462;53.156;8.220;2023-09-08T14:36:16;3.65;;;3.35;;
7657;SDS011;8462;53.156;8.220;2023-09-08T14:38:44;5.18;;;4.13;;
7657;SDS011;8462;53.156;8.220;2023-09-08T14:41:11;5.72;;;3.08;;
7657;SDS011;8462;53.156;8.220;2023-09-08T14:43:38;3.30;;;2.90;;
7657;SDS011;8462;53.156;8.220;2023-09-08T14:46:06;5.85;;;3.70;;
7657;SDS011;8462;53.156;8.220;2023-09-08T14:48:33;5.15;;;3.28;;
7657;SDS011;8462;53.156;8.220;2023-09-08T14:51:01;5.22;;;2.90;;
7657;SDS011;8462;53.156;8.220;2023-09-08T14:53:28;5.38;;;3.40;;
7657;SDS011;8462;53.156;8.220;2023-09-08T14:55:57;8.82;;;4.72;;
7657;SDS011;8462;53.156;8.220;2023-09-08T14:58:24;5.18;;;3.20;;
7657;SDS011;8462;53.156;8.220;2023-09-08T15:00:57;3.55;;;3.10;;
7657;SDS011;8462;53.156;8.220;2023-09-08T15:03:26;5.22;;;3.72;;
7657;SDS011;8462;53.156;8.220;2023-09-08T15:05:53;6.65;;;3.78;;
7657;SDS011;8462;53.156;8.220;2023-09-08T15:08:20;3.58;;;2.90;;
7657;SDS011;8462;53.156;8.220;2023-09-08T15:10:46;3.50;;;3.00;;
7657;SDS011;8462;53.156;8.220;2023-09-08T15:13:13;5.75;;;3.53;;
7657;SDS011;8462;53.156;8.220;2023-09-08T15:15:40;5.32;;;3.70;;
7657;SDS011;8462;53.156;8.220;2023-09-08T15:18:07;4.30;;;2.75;;
7657;SDS011;8462;53.156;8.220;2023-09-08T15:20:35;5.00;;;2.85;;
7657;SDS011;8462;53.156;8.220;2023-09-08T15:23:02;3.35;;;3.03;;
7657;SDS011;8462;53.156;8.220;2023-09-08T15:25:29;4.85;;;3.50;;
7657;SDS011;8462;53.156;8.220;2023-09-08T15:27:56;4.28;;;3.13;;
7657;SDS011;8462;53.156;8.220;2023-09-08T15:30:23;3.97;;;2.55;;
7657;SDS011;8462;53.156;8.220;2023-09-08T15:32:50;4.80;;;2.97;;
7657;SDS011;8462;53.156;8.220;2023-09-08T15:35:17;4.22;;;3.80;;